Airfield :
LOGIN :

Register | Disclaimer

   EN    FR    IT 

 










Legend :    VFR   Marginal VFR   IFR   Intensive IFR   Very Intensive IFR
Visi :
Ceiling :
>= 8 km
>= 3000ft
5 to 8 km
1000 to 3000 ft
1500m to 5 km
500 to 1000 ft
800 to 1500m
200 to 500 ft
< 800m
< 200 ft
Symbols :   Thunderstorms  Fog  Heavy snow  Heavy precipitations  Wind > 20 kt
SIGMETs :     Misc.  Thunderstorms  Icing  Turbulence  Mountain Waves  Volcanic Ashes







- Airport Elevation : 45 ft
- IATA code : CEG
- Download approach charts


EGNR - Hawarden Chester

CURRENT METAR :
  • 150950Z 35009KT 9999 FEW031 05/02 Q1001

EXPIRED METARs :
  • 150920Z 34009KT 9999 FEW027 05/02 Q1000
  • 150850Z 33010KT 9999 FEW028 04/02 Q1000
  • 150820Z 32011KT 9999 FEW027 04/02 Q0999
  • 150750Z 32010KT 9999 FEW027 04/02 Q0999
  • 150720Z 32012KT CAVOK 04/02 Q0998

TAF TAF EGNR
Valid from the 15 at 09:00 until the 15 at 18:00 UTC


150806Z 1509/1518 34012KT 9999 FEW035
PROB30
TEMPO 1509/1511 6000 SHRA BKN010
No reported NOTAMs for that airfield.



MET'MAP, your aeronautical weather chart ! - Copyright ORBIFLY December 2007 - Disclaimer

ORBIFLY MET'MAP TEAM :

Programming & Development : Alexandra Zaïnal
Concept & Development : Baudouin d'Aumeries
Co-Development & Prog : Marc-Olivier Méhu
Technical & hardware support : Manuel Goepfert

Contact : metmap@orbifly.com




SOURCES & CREDITS :

   NOAA